createdAt,value
2018-02-19T00:00:09.508Z,1.04
2018-02-19T00:02:35.272Z,1.04
2018-02-19T00:05:01.036Z,0.94
2018-02-19T00:07:26.933Z,0.99
2018-02-19T00:09:52.687Z,1.00
2018-02-19T00:12:18.448Z,1.02
2018-02-19T00:14:44.213Z,1.03
2018-02-19T00:17:09.975Z,1.04
2018-02-19T00:19:35.740Z,0.92
2018-02-19T00:22:01.492Z,0.84
2018-02-19T00:24:27.266Z,0.89
2018-02-19T00:26:53.004Z,0.86
2018-02-19T00:29:18.786Z,0.86
2018-02-19T00:31:44.540Z,0.86
2018-02-19T00:34:10.453Z,0.84
2018-02-19T00:36:36.206Z,0.84
2018-02-19T00:39:01.986Z,0.93
2018-02-19T00:41:27.756Z,0.92
2018-02-19T00:43:54.319Z,0.94
2018-02-19T00:46:20.609Z,0.95
2018-02-19T00:48:46.440Z,1.00
2018-02-19T00:51:12.553Z,0.97
2018-02-19T00:53:38.310Z,1.00
2018-02-19T00:56:04.083Z,0.99
2018-02-19T00:58:30.088Z,0.99
2018-02-19T01:00:55.864Z,1.04
2018-02-19T01:03:21.615Z,1.02
2018-02-19T01:05:47.375Z,0.97
2018-02-19T01:08:13.492Z,0.97
2018-02-19T01:10:39.271Z,0.99
2018-02-19T01:13:05.028Z,0.99
2018-02-19T01:15:30.824Z,1.03
2018-02-19T01:17:56.574Z,0.98
2018-02-19T01:20:22.334Z,0.91
2018-02-19T01:22:48.098Z,0.95
2018-02-19T01:25:13.930Z,0.87
2018-02-19T01:27:39.698Z,0.86
2018-02-19T01:30:05.454Z,0.90
2018-02-19T01:32:31.222Z,0.96
2018-02-19T01:34:56.984Z,0.84
2018-02-19T01:37:22.746Z,0.83
2018-02-19T01:39:48.502Z,0.81
2018-02-19T01:42:14.265Z,0.79
2018-02-19T01:44:40.028Z,0.72
2018-02-19T01:47:05.794Z,0.71
2018-02-19T01:49:31.548Z,0.72
2018-02-19T01:51:57.311Z,0.71
2018-02-19T01:54:23.068Z,0.71
2018-02-19T01:56:48.864Z,0.68
2018-02-19T01:59:14.610Z,0.65
2018-02-19T02:01:40.374Z,0.67
2018-02-19T02:04:06.128Z,0.63
2018-02-19T02:06:31.903Z,0.66
2018-02-19T02:08:57.648Z,0.63
2018-02-19T02:11:23.420Z,0.60
2018-02-19T02:13:49.178Z,0.66
2018-02-19T02:16:14.938Z,0.62
2018-02-19T02:18:40.712Z,0.62
2018-02-19T02:21:06.468Z,0.67
2018-02-19T02:23:32.239Z,0.69
2018-02-19T02:25:58.014Z,0.69
2018-02-19T02:28:23.784Z,0.76
2018-02-19T02:30:49.534Z,0.87
2018-02-19T02:33:15.304Z,0.86
2018-02-19T02:35:41.052Z,0.86
2018-02-19T02:38:06.823Z,0.84
2018-02-19T02:40:32.571Z,0.93
2018-02-19T02:42:58.336Z,0.92
2018-02-19T02:45:24.091Z,0.95
2018-02-19T02:47:49.856Z,0.96
2018-02-19T02:50:15.616Z,1.04
2018-02-19T02:52:41.399Z,1.03
2018-02-19T02:55:07.166Z,1.07
2018-02-19T02:57:32.951Z,1.07
2018-02-19T02:59:58.698Z,1.10
2018-02-19T03:02:24.467Z,1.12
2018-02-19T03:04:50.237Z,1.12
2018-02-19T03:07:15.999Z,1.15
2018-02-19T03:09:41.775Z,1.12
2018-02-19T03:12:07.520Z,1.14
2018-02-19T03:14:33.287Z,1.15
2018-02-19T03:16:59.052Z,1.15
2018-02-19T03:19:24.819Z,1.15
2018-02-19T03:21:50.580Z,1.15
2018-02-19T03:24:16.363Z,1.18
2018-02-19T03:26:42.115Z,1.15
2018-02-19T03:29:07.874Z,1.07
2018-02-19T03:31:33.634Z,1.09
2018-02-19T03:33:59.402Z,1.15
2018-02-19T03:36:25.155Z,1.15
2018-02-19T03:38:50.930Z,1.16
2018-02-19T03:41:16.688Z,1.17
2018-02-19T03:43:42.459Z,1.22
2018-02-19T03:46:08.213Z,1.20
2018-02-19T03:48:33.979Z,1.22
2018-02-19T03:50:59.752Z,1.26
2018-02-19T03:53:25.511Z,1.22
2018-02-19T03:55:51.271Z,1.20
2018-02-19T03:58:17.047Z,1.14
2018-02-19T04:00:42.826Z,1.11
2018-02-19T04:03:08.591Z,1.11
2018-02-19T04:05:34.359Z,1.07
2018-02-19T04:08:00.120Z,1.02
2018-02-19T04:10:25.909Z,1.05
2018-02-19T04:12:51.659Z,1.00
2018-02-19T04:15:17.432Z,0.97
2018-02-19T04:17:43.219Z,1.03
2018-02-19T04:20:08.980Z,0.98
2018-02-19T04:22:34.764Z,0.95
2018-02-19T04:25:00.535Z,0.96
2018-02-19T04:27:26.321Z,0.97
2018-02-19T04:29:52.094Z,0.87
2018-02-19T04:32:17.840Z,0.85
2018-02-19T04:34:43.615Z,0.93
2018-02-19T04:37:09.371Z,1.00
2018-02-19T04:39:35.162Z,0.93
2018-02-19T04:42:00.912Z,1.03
2018-02-19T04:44:34.801Z,1.02
2018-02-19T04:47:00.567Z,0.93
2018-02-19T04:49:26.326Z,0.94
2018-02-19T04:51:52.087Z,0.94
2018-02-19T04:54:17.836Z,0.98
2018-02-19T04:56:43.596Z,1.02
2018-02-19T04:59:09.371Z,1.03
2018-02-19T05:01:35.139Z,1.06
2018-02-19T05:04:00.905Z,1.10
2018-02-19T05:06:26.683Z,1.06
2018-02-19T05:08:52.436Z,1.13
2018-02-19T05:11:18.212Z,1.13
2018-02-19T05:13:43.970Z,1.05
2018-02-19T05:16:09.742Z,1.03
2018-02-19T05:18:35.496Z,0.97
2018-02-19T05:21:02.048Z,0.96
2018-02-19T05:23:27.787Z,1.03
2018-02-19T05:25:53.535Z,0.98
2018-02-19T05:28:19.285Z,0.95
2018-02-19T05:30:45.060Z,0.96
2018-02-19T05:33:10.802Z,0.94
2018-02-19T05:35:36.559Z,0.94
2018-02-19T05:38:02.302Z,0.95
2018-02-19T05:40:28.081Z,0.94
2018-02-19T05:42:53.826Z,0.95
2018-02-19T05:45:19.577Z,0.97
2018-02-19T05:47:45.340Z,0.96
2018-02-19T05:50:11.079Z,0.97
2018-02-19T05:52:36.834Z,0.98
2018-02-19T05:55:02.591Z,1.10
2018-02-19T05:57:28.358Z,1.13
2018-02-19T05:59:54.107Z,1.13
2018-02-19T06:02:19.874Z,1.13
2018-02-19T06:04:45.614Z,1.14
2018-02-19T06:07:11.371Z,1.12
2018-02-19T06:09:37.116Z,1.06
2018-02-19T06:12:02.866Z,1.07
2018-02-19T06:14:28.627Z,1.07
2018-02-19T06:16:54.374Z,1.06
2018-02-19T06:19:20.114Z,1.06
2018-02-19T06:21:45.872Z,1.07
2018-02-19T06:24:11.602Z,1.09
2018-02-19T06:26:37.376Z,1.05
2018-02-19T06:29:03.124Z,1.06
2018-02-19T06:31:28.880Z,1.03
2018-02-19T06:33:54.635Z,1.00
2018-02-19T06:36:20.383Z,0.99
2018-02-19T06:38:46.141Z,1.03
2018-02-19T06:41:11.895Z,0.98
2018-02-19T06:43:37.643Z,0.98
2018-02-19T06:46:03.414Z,1.02
2018-02-19T06:48:29.172Z,1.04
2018-02-19T06:50:54.924Z,1.08
2018-02-19T06:53:20.693Z,1.08
2018-02-19T06:55:46.438Z,1.09
2018-02-19T06:58:12.203Z,1.11
2018-02-19T07:00:37.955Z,1.13
2018-02-19T07:03:03.711Z,1.12
2018-02-19T07:05:29.464Z,1.13
2018-02-19T07:07:55.235Z,1.13
2018-02-19T07:10:20.988Z,1.17
2018-02-19T07:12:46.742Z,1.14
2018-02-19T07:15:12.511Z,1.14
2018-02-19T07:17:38.270Z,1.14
2018-02-19T07:20:04.021Z,1.16
2018-02-19T07:22:29.779Z,1.18
2018-02-19T07:24:55.551Z,1.18
2018-02-19T07:27:21.291Z,1.24
2018-02-19T07:29:47.036Z,1.20
2018-02-19T07:32:12.783Z,1.24
2018-02-19T07:34:38.537Z,1.29
2018-02-19T07:37:04.292Z,1.27
2018-02-19T07:39:30.068Z,1.29
2018-02-19T07:41:55.811Z,1.30
2018-02-19T07:44:21.588Z,1.33
2018-02-19T07:46:47.339Z,1.36
2018-02-19T07:49:13.118Z,1.36
2018-02-19T07:51:38.865Z,1.36
2018-02-19T07:54:04.619Z,1.42
2018-02-19T07:56:30.375Z,1.46
2018-02-19T07:58:56.141Z,1.45
2018-02-19T08:01:21.891Z,1.46
2018-02-19T08:03:47.652Z,1.50
2018-02-19T08:06:13.407Z,1.59
2018-02-19T08:08:39.163Z,1.64
2018-02-19T08:11:04.907Z,1.63
2018-02-19T08:13:30.659Z,1.62
2018-02-19T08:15:56.432Z,1.58
2018-02-19T08:18:22.198Z,1.68
2018-02-19T08:20:47.963Z,1.73
2018-02-19T08:23:13.724Z,1.76
2018-02-19T08:25:39.484Z,1.73
2018-02-19T08:28:05.221Z,1.80
2018-02-19T08:30:30.980Z,1.88
2018-02-19T08:32:56.731Z,2.05
2018-02-19T08:35:22.496Z,2.12
2018-02-19T08:37:48.243Z,2.12
2018-02-19T08:40:13.990Z,2.27
2018-02-19T08:42:39.736Z,2.35
2018-02-19T08:45:06.509Z,2.37
2018-02-19T08:47:32.274Z,2.50
2018-02-19T08:49:58.229Z,2.57
2018-02-19T08:52:24.011Z,2.73
2018-02-19T08:54:49.748Z,2.71
2018-02-19T08:57:15.502Z,2.81
2018-02-19T08:59:41.263Z,2.83
2018-02-19T09:02:07.034Z,2.98
2018-02-19T09:04:32.773Z,3.02
2018-02-19T09:06:58.526Z,3.09
2018-02-19T09:09:24.356Z,3.30
2018-02-19T09:11:50.112Z,3.26
2018-02-19T09:14:15.861Z,3.34
2018-02-19T09:16:41.611Z,3.59
2018-02-19T09:19:07.350Z,3.64
2018-02-19T09:21:33.112Z,3.73
2018-02-19T09:23:58.855Z,3.59
2018-02-19T09:26:24.610Z,3.65
2018-02-19T09:28:50.357Z,3.70
2018-02-19T09:31:16.108Z,3.81
2018-02-19T09:33:41.870Z,3.75
2018-02-19T09:36:07.610Z,3.94
2018-02-19T09:38:33.343Z,4.13
2018-02-19T09:40:59.098Z,4.13
2018-02-19T09:43:24.847Z,4.37
2018-02-19T09:45:50.615Z,4.79
2018-02-19T09:48:16.365Z,4.61
2018-02-19T09:50:42.122Z,4.44
2018-02-19T09:53:07.876Z,4.23
2018-02-19T09:55:33.627Z,4.22
2018-02-19T09:57:59.386Z,4.13
2018-02-19T10:00:25.135Z,4.21
2018-02-19T10:02:50.884Z,4.11
2018-02-19T10:05:16.623Z,4.01
2018-02-19T10:07:42.374Z,3.90
2018-02-19T10:10:08.114Z,4.02
2018-02-19T10:12:33.875Z,4.29
2018-02-19T10:14:59.638Z,4.57
2018-02-19T10:17:25.403Z,4.85
2018-02-19T10:19:51.156Z,5.12
2018-02-19T10:22:16.920Z,5.14
2018-02-19T10:24:42.671Z,5.54
2018-02-19T10:27:08.428Z,5.52
2018-02-19T10:29:34.171Z,5.43
2018-02-19T10:31:59.919Z,5.59
2018-02-19T10:34:25.664Z,5.52
2018-02-19T10:36:51.415Z,5.43
2018-02-19T10:39:17.175Z,5.57
2018-02-19T10:41:42.947Z,5.58
2018-02-19T10:44:08.687Z,5.67
2018-02-19T10:46:34.418Z,5.59
2018-02-19T10:49:00.179Z,5.43
2018-02-19T10:51:25.936Z,5.53
2018-02-19T10:53:51.705Z,5.74
2018-02-19T10:56:17.476Z,5.65
2018-02-19T10:58:43.255Z,5.85
2018-02-19T11:01:09.040Z,5.97
2018-02-19T11:03:34.800Z,6.25
2018-02-19T11:06:00.564Z,6.27
2018-02-19T11:08:26.333Z,6.15
2018-02-19T11:10:52.067Z,6.12
2018-02-19T11:13:17.836Z,5.85
2018-02-19T11:15:43.602Z,6.02
2018-02-19T11:18:09.393Z,6.14
2018-02-19T11:20:35.142Z,6.01
2018-02-19T11:23:00.896Z,6.26
2018-02-19T11:25:26.664Z,6.30
2018-02-19T11:27:52.423Z,6.22
2018-02-19T11:30:18.171Z,6.17
2018-02-19T11:32:43.928Z,6.10
2018-02-19T11:35:09.683Z,6.43
2018-02-19T11:37:35.463Z,6.45
2018-02-19T11:40:01.223Z,6.60
2018-02-19T11:42:27.004Z,6.69
2018-02-19T11:44:52.755Z,6.66
2018-02-19T11:47:18.496Z,6.77
2018-02-19T11:49:44.247Z,6.68
2018-02-19T11:52:10.009Z,6.68
2018-02-19T11:54:35.778Z,7.07
2018-02-19T11:57:01.537Z,6.87
2018-02-19T11:59:27.314Z,6.89
2018-02-19T12:01:53.083Z,6.89
2018-02-19T12:04:18.846Z,6.95
2018-02-19T12:06:44.578Z,7.40
2018-02-19T12:09:10.333Z,6.93
2018-02-19T12:11:36.076Z,7.18
2018-02-19T12:14:01.859Z,7.49
2018-02-19T12:16:27.651Z,7.70
2018-02-19T12:18:53.450Z,7.47
2018-02-19T12:21:19.202Z,7.26
2018-02-19T12:23:44.951Z,7.50
2018-02-19T12:26:10.699Z,7.67
2018-02-19T12:28:36.446Z,7.30
2018-02-19T12:31:02.198Z,7.08
2018-02-19T12:33:27.947Z,7.04
2018-02-19T12:35:53.715Z,7.16
2018-02-19T12:38:19.468Z,6.92
2018-02-19T12:40:45.246Z,7.14
2018-02-19T12:43:11.000Z,7.23
2018-02-19T12:45:37.277Z,7.14
2018-02-19T12:48:03.035Z,6.70
2018-02-19T12:50:29.107Z,6.69
2018-02-19T12:52:54.876Z,6.80
2018-02-19T12:55:20.625Z,6.77
2018-02-19T12:57:46.385Z,7.18
2018-02-19T13:00:12.142Z,7.22
2018-02-19T13:02:38.481Z,7.10
2018-02-19T13:05:04.779Z,6.89
2018-02-19T13:07:31.399Z,6.64
2018-02-19T13:09:57.966Z,6.95
2018-02-19T13:12:24.099Z,7.15
2018-02-19T13:14:49.852Z,7.27
2018-02-19T13:17:15.620Z,7.39
2018-02-19T13:19:41.713Z,7.32
2018-02-19T13:24:40.307Z,7.16
2018-02-19T13:27:06.056Z,7.10
2018-02-19T13:29:31.863Z,6.82
2018-02-19T13:31:57.615Z,7.09
2018-02-19T13:34:23.350Z,6.99
2018-02-19T13:36:49.100Z,6.91
2018-02-19T13:39:14.842Z,7.02
2018-02-19T13:41:40.635Z,6.86
2018-02-19T13:44:06.396Z,7.01
2018-02-19T13:46:32.167Z,6.82
2018-02-19T13:48:57.947Z,7.32
2018-02-19T13:51:23.715Z,7.06
2018-02-19T13:53:49.468Z,6.91
2018-02-19T13:56:15.224Z,7.19
2018-02-19T13:58:40.996Z,7.28
2018-02-19T14:01:06.752Z,7.53
2018-02-19T14:03:32.517Z,7.32
2018-02-19T14:05:58.255Z,7.35
2018-02-19T14:08:24.008Z,6.90
2018-02-19T14:10:49.773Z,6.93
2018-02-19T14:13:15.539Z,6.85
2018-02-19T14:15:41.285Z,6.74
2018-02-19T14:18:07.098Z,6.73
2018-02-19T14:20:32.803Z,6.53
2018-02-19T14:22:58.564Z,6.56
2018-02-19T14:25:24.359Z,6.65
2018-02-19T14:27:50.115Z,6.66
2018-02-19T14:30:15.867Z,6.74
2018-02-19T14:32:41.614Z,6.56
2018-02-19T14:35:07.350Z,6.53
2018-02-19T14:37:33.103Z,6.48
2018-02-19T14:39:58.846Z,6.45
2018-02-19T14:42:24.611Z,6.55
2018-02-19T14:44:50.354Z,6.53
2018-02-19T14:47:16.098Z,6.34
2018-02-19T14:49:41.869Z,6.34
2018-02-19T14:52:07.623Z,6.36
2018-02-19T14:54:33.391Z,6.33
2018-02-19T14:56:59.138Z,6.20
2018-02-19T14:59:24.894Z,6.19
2018-02-19T15:01:50.640Z,6.08
2018-02-19T15:04:16.390Z,5.98
2018-02-19T15:06:42.138Z,6.02
2018-02-19T15:09:07.891Z,6.05
2018-02-19T15:11:33.631Z,5.99
2018-02-19T15:13:59.384Z,5.84
2018-02-19T15:16:25.127Z,5.84
2018-02-19T15:18:50.892Z,5.93
2018-02-19T15:21:16.630Z,5.88
2018-02-19T15:23:42.395Z,5.84
2018-02-19T15:26:08.150Z,5.72
2018-02-19T15:28:33.892Z,5.72
2018-02-19T15:30:59.647Z,5.73
2018-02-19T15:33:25.394Z,5.65
2018-02-19T15:35:51.161Z,5.65
2018-02-19T15:38:16.938Z,5.88
2018-02-19T15:40:42.758Z,5.83
2018-02-19T15:43:08.514Z,5.95
2018-02-19T15:45:34.277Z,5.99
2018-02-19T15:48:00.031Z,5.82
2018-02-19T15:50:25.795Z,5.70
2018-02-19T15:52:51.555Z,5.79
2018-02-19T15:55:17.317Z,5.89
2018-02-19T15:57:43.071Z,5.84
2018-02-19T16:00:08.820Z,5.98
2018-02-19T16:02:34.563Z,6.01
2018-02-19T16:05:00.332Z,5.85
2018-02-19T16:07:26.088Z,5.83
2018-02-19T16:09:51.851Z,5.72
2018-02-19T16:12:17.624Z,5.87
2018-02-19T16:14:43.395Z,5.81
2018-02-19T16:17:09.174Z,5.91
2018-02-19T16:19:36.107Z,5.86
2018-02-19T16:22:01.920Z,5.80
2018-02-19T16:24:27.866Z,5.59
2018-02-19T16:26:53.729Z,5.61
2018-02-19T16:29:19.653Z,5.60
2018-02-19T16:31:45.432Z,5.51
2018-02-19T16:34:11.294Z,5.37
2018-02-19T16:36:37.140Z,5.31
2018-02-19T16:39:02.919Z,5.40
2018-02-19T16:41:29.348Z,5.57
2018-02-19T16:43:56.137Z,5.52
2018-02-19T16:46:22.037Z,5.39
2018-02-19T16:48:47.980Z,5.21
2018-02-19T16:51:13.787Z,5.12
2018-02-19T16:53:39.608Z,5.08
2018-02-19T16:56:05.378Z,5.10
2018-02-19T16:58:31.150Z,5.05
2018-02-19T17:00:56.921Z,4.94
2018-02-19T17:03:22.690Z,4.85
2018-02-19T17:05:48.453Z,4.92
2018-02-19T17:08:14.224Z,5.09
2018-02-19T17:10:39.988Z,5.09
2018-02-19T17:13:05.751Z,4.96
2018-02-19T17:15:31.520Z,4.89
2018-02-19T17:17:57.291Z,4.82
2018-02-19T17:20:23.047Z,4.87
2018-02-19T17:22:48.836Z,4.87
2018-02-19T17:25:14.588Z,4.95
2018-02-19T17:27:40.342Z,4.92
2018-02-19T17:30:06.103Z,4.83
2018-02-19T17:32:31.857Z,4.71
2018-02-19T17:35:07.600Z,4.76
2018-02-19T17:37:33.351Z,4.65
2018-02-19T17:39:59.124Z,4.55
2018-02-19T17:42:24.883Z,4.51
2018-02-19T17:44:50.651Z,4.52
2018-02-19T17:47:16.403Z,4.51
2018-02-19T17:49:42.176Z,4.46
2018-02-19T17:52:07.931Z,4.44
2018-02-19T17:54:33.697Z,4.44
2018-02-19T17:56:59.451Z,4.37
2018-02-19T17:59:25.229Z,4.36
2018-02-19T18:01:51.006Z,4.30
2018-02-19T18:04:16.779Z,4.21
2018-02-19T18:06:42.555Z,4.19
2018-02-19T18:09:08.329Z,4.17
2018-02-19T18:11:34.108Z,4.19
2018-02-19T18:13:59.884Z,4.21
2018-02-19T18:16:25.643Z,4.23
2018-02-19T18:18:51.409Z,4.24
2018-02-19T18:21:17.183Z,4.19
2018-02-19T18:23:43.017Z,4.18
2018-02-19T18:26:08.796Z,4.16
2018-02-19T18:28:34.552Z,4.18
2018-02-19T18:31:00.327Z,4.16
2018-02-19T18:33:26.112Z,4.14
2018-02-19T18:35:51.876Z,4.06
2018-02-19T18:38:17.639Z,4.00
2018-02-19T18:40:43.417Z,3.95
2018-02-19T18:43:09.236Z,3.87
2018-02-19T18:45:34.999Z,3.87
2018-02-19T18:48:01.025Z,3.66
2018-02-19T18:50:26.799Z,3.61
2018-02-19T18:52:52.564Z,3.51
2018-02-19T18:55:18.332Z,3.50
2018-02-19T18:57:44.109Z,3.58
2018-02-19T19:00:09.874Z,3.61
2018-02-19T19:02:35.647Z,3.72
2018-02-19T19:05:01.406Z,3.74
2018-02-19T19:07:39.611Z,3.72
2018-02-19T19:10:17.949Z,3.63
2018-02-19T19:12:43.710Z,3.61
2018-02-19T19:15:09.483Z,3.60
2018-02-19T19:17:35.223Z,3.56
2018-02-19T19:20:00.999Z,3.45
2018-02-19T19:22:26.762Z,3.33
2018-02-19T19:24:52.535Z,3.25
2018-02-19T19:27:18.311Z,3.20
2018-02-19T19:29:44.072Z,3.20
2018-02-19T19:32:09.851Z,3.21
2018-02-19T19:34:35.610Z,3.15
2018-02-19T19:37:01.363Z,3.09
2018-02-19T19:39:27.120Z,3.08
2018-02-19T19:41:52.924Z,3.03
2018-02-19T19:44:18.667Z,3.05
2018-02-19T19:46:44.432Z,3.05
2018-02-19T19:49:10.179Z,2.98
2018-02-19T19:51:35.964Z,2.93
2018-02-19T19:54:01.773Z,3.09
2018-02-19T19:56:27.564Z,3.11
2018-02-19T19:58:53.332Z,3.15
2018-02-19T20:01:19.118Z,3.14
2018-02-19T20:03:44.883Z,3.19
2018-02-19T20:06:10.669Z,3.13
2018-02-19T20:08:36.432Z,3.06
2018-02-19T20:11:02.219Z,3.24
2018-02-19T20:13:27.982Z,3.35
2018-02-19T20:15:53.748Z,3.32
2018-02-19T20:18:19.524Z,3.19
2018-02-19T20:20:45.294Z,3.10
2018-02-19T20:23:11.076Z,3.04
2018-02-19T20:25:36.833Z,2.90
2018-02-19T20:28:02.633Z,2.86
2018-02-19T20:30:28.387Z,2.84
2018-02-19T20:32:54.193Z,2.82
2018-02-19T20:35:19.981Z,2.81
2018-02-19T20:37:45.779Z,2.74
2018-02-19T20:40:11.607Z,2.76
2018-02-19T20:42:37.384Z,2.79
2018-02-19T20:45:03.166Z,2.81
2018-02-19T20:47:28.964Z,2.85
2018-02-19T20:49:54.735Z,2.91
2018-02-19T20:52:20.535Z,2.94
2018-02-19T20:54:46.296Z,3.00
2018-02-19T20:57:12.054Z,2.98
2018-02-19T20:59:37.858Z,2.97
2018-02-19T21:02:03.616Z,2.94
2018-02-19T21:04:29.376Z,2.86
2018-02-19T21:06:55.132Z,2.88
2018-02-19T21:09:20.874Z,2.73
2018-02-19T21:11:46.628Z,2.56
2018-02-19T21:14:12.388Z,2.56
2018-02-19T21:16:38.154Z,2.60
2018-02-19T21:19:03.935Z,2.53
2018-02-19T21:21:29.696Z,2.49
2018-02-19T21:23:55.459Z,2.49
2018-02-19T21:26:21.358Z,2.44
2018-02-19T21:28:47.132Z,2.49
2018-02-19T21:31:12.900Z,2.60
2018-02-19T21:33:38.682Z,2.61
2018-02-19T21:36:04.442Z,2.51
2018-02-19T21:38:30.574Z,2.62
2018-02-19T21:40:56.351Z,2.60
2018-02-19T21:43:22.104Z,2.61
2018-02-19T21:45:47.889Z,2.46
2018-02-19T21:48:13.640Z,2.57
2018-02-19T21:50:39.396Z,2.54
2018-02-19T21:53:05.180Z,2.53
2018-02-19T21:55:30.942Z,2.45
2018-02-19T21:57:56.703Z,2.40
2018-02-19T22:00:22.470Z,2.38
2018-02-19T22:02:48.226Z,2.32
2018-02-19T22:05:13.987Z,2.27
2018-02-19T22:07:39.752Z,2.21
2018-02-19T22:10:05.520Z,2.18
2018-02-19T22:12:31.283Z,2.17
2018-02-19T22:14:57.050Z,2.19
2018-02-19T22:17:22.790Z,2.16
2018-02-19T22:19:48.563Z,2.13
2018-02-19T22:22:14.322Z,2.14
2018-02-19T22:24:40.084Z,2.12
2018-02-19T22:27:05.848Z,2.13
2018-02-19T22:29:31.583Z,2.16
2018-02-19T22:31:57.348Z,2.15
2018-02-19T22:34:23.124Z,2.04
2018-02-19T22:36:48.914Z,2.00
2018-02-19T22:39:14.663Z,1.96
2018-02-19T22:41:40.428Z,1.91
2018-02-19T22:44:06.188Z,1.76
2018-02-19T22:46:31.952Z,1.69
2018-02-19T22:48:57.732Z,1.69
2018-02-19T22:51:23.492Z,1.71
2018-02-19T22:53:49.236Z,1.58
2018-02-19T22:56:15.016Z,1.60
2018-02-19T22:58:40.791Z,1.66
2018-02-19T23:01:06.575Z,1.49
2018-02-19T23:03:32.328Z,1.48
2018-02-19T23:05:58.108Z,1.44
2018-02-19T23:08:23.854Z,1.56
2018-02-19T23:10:49.591Z,1.64
2018-02-19T23:13:15.351Z,1.40
2018-02-19T23:15:41.332Z,1.39
2018-02-19T23:18:07.108Z,1.25
2018-02-19T23:20:32.847Z,1.14
2018-02-19T23:22:58.638Z,1.18
2018-02-19T23:25:24.392Z,1.22
2018-02-19T23:27:50.172Z,1.17
2018-02-19T23:30:15.936Z,1.04
2018-02-19T23:32:41.730Z,0.98
2018-02-19T23:35:07.518Z,0.94
2018-02-19T23:37:33.243Z,0.97
2018-02-19T23:39:59.009Z,0.89
2018-02-19T23:42:24.823Z,0.88
2018-02-19T23:44:50.546Z,0.80
2018-02-19T23:47:16.304Z,0.83
2018-02-19T23:49:42.071Z,0.78
2018-02-19T23:52:07.829Z,0.66
2018-02-19T23:54:33.611Z,0.58
2018-02-19T23:56:59.413Z,0.46
2018-02-19T23:59:25.228Z,0.45
